KMIE

Delaware County Regional Airport

Muncie, Indiana, USA
METAR KMIE 101453Z 32003KT 2SM BR OVC004 M04/M07 A3029 RMK AO2 SLP267 I1001 I3001 T10441067 53013
Observed Flight Rules
Dec-10 @ 14:53 UTC (24 minutes ago) Instrument Flight Rules
Wind Visibility Clouds Conditions
320° at 3 knots 2 miles
  • Overcast at 400' AGL
  • Mist
Temperatures Readings
Current -4°C / 25°F
Dewpoint -7°C / 19°F
Humidity 80%
Altimeter 30.29" Hg
Pressure 1026.7 hPa
Elevation 285
METAR KMIE 101453Z 32003KT 2SM BR OVC004 M04/M07 A3029 RMK AO2 SLP267 I1001 I3001 T10441067 53013
Observed Flight Rules
Dec-10 @ 14:53 UTC
(24 minutes ago)
LIFR
Wind Visibility
320° at 3 knots 2 miles
Clouds
  • Overcast at 400' AGL
Conditions
  • Mist
Temperature Dewpoint
-4°C / 25°F -7°C / 19°F
Humidity Altimeter Pressure
80% 30.29" Hg 1026.7 hPa